Time;durP1;ratioP1;P1;durP2;ratioP2;P2;SDS_P1;SDS_P2;PMS_P1;PMS_P2;Temp;Humidity;BMP_temperature;BMP_pressure;BME280_temperature;BME280_humidity;BME280_pressure;Samples;Min_cycle;Max_cycle;Signal;HPM_P1;HPM_P2
2023/08/12 00:00:47;;;;;;;742.47;529.05;;;;;;;;;;5029955;28;21663;-62
2023/08/12 00:03:14;;;;;;;737.05;527.47;;;;;;;;;;5030618;28;20545;-62
2023/08/12 00:05:42;;;;;;;741.22;532.30;;;;;;;;;;5030413;28;20483;-62
2023/08/12 00:08:13;;;;;;;741.90;529.05;;;;;;;;;;5025433;28;20507;-62
2023/08/12 00:10:40;;;;;;;750.95;543.53;;;;;;;;;;5025496;28;20440;-62
2023/08/12 00:13:07;;;;;;;758.47;549.67;;;;;;;;;;5027388;28;20458;-62
2023/08/12 00:15:35;;;;;;;746.00;529.22;;;;;;;;;;5027122;28;20428;-62
2023/08/12 00:18:04;;;;;;;753.80;542.65;;;;;;;;;;5026283;28;20443;-62
2023/08/12 00:20:31;;;;;;;755.58;545.40;;;;;;;;;;5028770;28;20466;-62
2023/08/12 00:22:58;;;;;;;752.60;533.20;;;;;;;;;;5026777;28;20483;-62
2023/08/12 00:25:26;;;;;;;767.42;557.30;;;;;;;;;;5024650;28;20470;-62
2023/08/12 00:27:53;;;;;;;772.35;559.63;;;;;;;;;;5028108;28;20438;-62
2023/08/12 00:30:20;;;;;;;774.03;563.47;;;;;;;;;;5027327;28;20511;-62
2023/08/12 00:32:47;;;;;;;770.15;551.45;;;;;;;;;;5027633;28;20906;-62
2023/08/12 00:35:14;;;;;;;778.92;555.90;;;;;;;;;;5027932;28;20440;-62
2023/08/12 00:37:42;;;;;;;788.05;570.28;;;;;;;;;;5020127;28;20524;-62
2023/08/12 00:40:09;;;;;;;788.25;568.95;;;;;;;;;;5025682;28;20443;-62
2023/08/12 00:42:37;;;;;;;788.47;575.13;;;;;;;;;;5028863;28;20784;-62
2023/08/12 00:45:09;;;;;;;782.58;557.97;;;;;;;;;;5028024;28;20466;-62
2023/08/12 00:47:36;;;;;;;784.78;548.47;;;;;;;;;;5029193;28;20506;-62
2023/08/12 00:50:04;;;;;;;787.70;549.17;;;;;;;;;;5030541;28;20426;-62
2023/08/12 00:52:31;;;;;;;804.20;568.63;;;;;;;;;;5034308;28;20427;-62
2023/08/12 00:55:01;;;;;;;814.63;578.53;;;;;;;;;;5034026;28;20481;-62
2023/08/12 00:57:28;;;;;;;826.28;583.75;;;;;;;;;;5034830;28;20541;-62
2023/08/12 00:59:56;;;;;;;823.03;581.97;;;;;;;;;;5027057;28;21161;-62
2023/08/12 01:02:24;;;;;;;812.00;586.08;;;;;;;;;;5036479;28;20459;-62
2023/08/12 01:04:51;;;;;;;807.77;585.80;;;;;;;;;;5029197;28;20433;-62
2023/08/12 01:07:19;;;;;;;823.58;595.47;;;;;;;;;;5032710;28;20431;-62
2023/08/12 01:09:47;;;;;;;837.88;617.38;;;;;;;;;;5033039;28;20431;-62
2023/08/12 01:12:21;;;;;;;811.45;576.85;;;;;;;;;;5031530;28;20485;-62
2023/08/12 01:14:59;;;;;;;812.85;573.05;;;;;;;;;;5034168;28;20464;-62
2023/08/12 01:17:29;;;;;;;811.53;573.92;;;;;;;;;;5035562;28;20428;-62
2023/08/12 01:19:56;;;;;;;824.78;593.78;;;;;;;;;;5031145;28;20440;-62
2023/08/12 01:22:24;;;;;;;820.53;566.97;;;;;;;;;;5031852;28;20438;-62
2023/08/12 01:24:52;;;;;;;838.50;599.75;;;;;;;;;;5030623;28;20485;-62
2023/08/12 01:27:27;;;;;;;823.13;582.30;;;;;;;;;;5033789;28;20438;-63
2023/08/12 01:29:54;;;;;;;839.28;573.65;;;;;;;;;;5033715;28;21205;-62
2023/08/12 01:32:30;;;;;;;812.95;563.45;;;;;;;;;;5036869;28;20524;-62
2023/08/12 01:35:06;;;;;;;813.97;568.80;;;;;;;;;;5035496;28;20912;-62
2023/08/12 01:37:34;;;;;;;820.28;577.25;;;;;;;;;;5034011;28;20435;-62
2023/08/12 01:40:05;;;;;;;814.25;561.80;;;;;;;;;;5033809;28;20522;-62
2023/08/12 01:42:33;;;;;;;825.92;583.90;;;;;;;;;;5032287;28;20435;-63
2023/08/12 01:45:04;;;;;;;818.95;579.55;;;;;;;;;;5031066;28;20430;-62
2023/08/12 01:47:32;;;;;;;832.25;587.70;;;;;;;;;;5031898;28;20803;-62
2023/08/12 01:50:02;;;;;;;825.15;578.08;;;;;;;;;;5031764;28;21182;-62
2023/08/12 01:52:29;;;;;;;824.20;575.70;;;;;;;;;;5028732;28;20524;-62
2023/08/12 01:54:56;;;;;;;831.15;586.08;;;;;;;;;;5025575;28;21013;-62
2023/08/12 01:57:24;;;;;;;824.72;584.50;;;;;;;;;;5029954;28;20554;-62
2023/08/12 01:59:54;;;;;;;818.95;574.30;;;;;;;;;;5029611;28;20446;-62
2023/08/12 02:02:21;;;;;;;841.95;612.15;;;;;;;;;;5028987;28;20439;-62
2023/08/12 02:04:50;;;;;;;811.47;562.13;;;;;;;;;;5032473;28;20439;-62
2023/08/12 02:07:17;;;;;;;808.97;550.83;;;;;;;;;;5028333;28;20895;-62
2023/08/12 02:09:44;;;;;;;813.33;558.88;;;;;;;;;;5027442;28;21103;-62
2023/08/12 02:12:11;;;;;;;807.43;554.00;;;;;;;;;;5027221;28;21006;-62
2023/08/12 02:14:39;;;;;;;829.20;592.10;;;;;;;;;;5029370;28;20522;-62
2023/08/12 02:17:06;;;;;;;808.00;565.03;;;;;;;;;;5033251;28;20516;-63
2023/08/12 02:19:34;;;;;;;810.25;559.95;;;;;;;;;;5031954;28;20474;-62
2023/08/12 02:22:04;;;;;;;812.03;561.67;;;;;;;;;;5037331;28;20433;-63
2023/08/12 02:24:31;;;;;;;817.10;576.40;;;;;;;;;;5029740;28;20529;-63
2023/08/12 02:26:58;;;;;;;821.63;568.90;;;;;;;;;;5029169;28;20441;-63
2023/08/12 02:29:28;;;;;;;819.63;574.80;;;;;;;;;;5029262;28;20491;-63
2023/08/12 02:31:58;;;;;;;822.70;581.65;;;;;;;;;;5029461;28;20535;-63
2023/08/12 02:34:25;;;;;;;818.08;579.45;;;;;;;;;;5026416;28;20437;-63
2023/08/12 02:36:52;;;;;;;821.93;589.97;;;;;;;;;;5031672;28;20467;-63
2023/08/12 02:39:19;;;;;;;828.95;605.95;;;;;;;;;;5028351;28;20445;-63
2023/08/12 02:41:47;;;;;;;824.10;601.65;;;;;;;;;;5029695;28;20433;-63
2023/08/12 02:44:14;;;;;;;809.80;584.58;;;;;;;;;;5031422;28;20435;-63
2023/08/12 02:46:41;;;;;;;807.08;591.33;;;;;;;;;;5025624;28;20448;-63
2023/08/12 02:49:08;;;;;;;786.33;563.95;;;;;;;;;;5025104;28;20441;-64
2023/08/12 02:51:35;;;;;;;768.80;544.13;;;;;;;;;;5029127;28;20442;-63
2023/08/12 02:54:02;;;;;;;762.25;547.88;;;;;;;;;;5027568;28;21450;-63
2023/08/12 02:56:30;;;;;;;749.25;527.08;;;;;;;;;;5027385;28;20526;-64
2023/08/12 02:58:57;;;;;;;742.58;522.88;;;;;;;;;;5032120;28;20986;-64
2023/08/12 03:01:24;;;;;;;716.80;484.13;;;;;;;;;;5026567;28;20518;-64
2023/08/12 03:03:52;;;;;;;700.92;453.77;;;;;;;;;;5028987;28;20997;-65
2023/08/12 03:06:19;;;;;;;697.90;465.77;;;;;;;;;;5027671;28;20436;-65
2023/08/12 03:08:46;;;;;;;692.65;455.30;;;;;;;;;;5029702;28;20435;-65
2023/08/12 03:11:13;;;;;;;692.03;471.80;;;;;;;;;;5025800;28;20531;-64
2023/08/12 03:13:40;;;;;;;681.25;454.42;;;;;;;;;;5027250;28;20461;-64
2023/08/12 03:16:14;;;;;;;666.45;441.10;;;;;;;;;;5031770;28;20433;-64
2023/08/12 03:18:41;;;;;;;648.05;398.55;;;;;;;;;;5029524;28;20536;-65
2023/08/12 03:21:09;;;;;;;636.80;379.30;;;;;;;;;;5036567;28;20578;-66
2023/08/12 03:23:37;;;;;;;647.20;413.23;;;;;;;;;;5029763;28;20455;-66
2023/08/12 03:26:04;;;;;;;647.28;421.90;;;;;;;;;;5028373;28;20519;-66
2023/08/12 03:28:31;;;;;;;631.78;387.83;;;;;;;;;;5029231;28;20455;-66
2023/08/12 03:30:59;;;;;;;620.05;376.42;;;;;;;;;;5031511;28;20508;-66
2023/08/12 03:33:26;;;;;;;631.72;415.92;;;;;;;;;;5027510;28;20551;-66
2023/08/12 03:35:53;;;;;;;625.20;399.60;;;;;;;;;;5028380;28;20462;-66
2023/08/12 03:38:20;;;;;;;625.08;408.30;;;;;;;;;;5032194;28;20460;-66
2023/08/12 03:40:47;;;;;;;624.63;404.08;;;;;;;;;;5028147;28;20433;-66
2023/08/12 03:43:15;;;;;;;615.28;392.15;;;;;;;;;;5026246;28;20444;-66
2023/08/12 03:45:47;;;;;;;602.13;381.55;;;;;;;;;;5031755;28;20993;-66
2023/08/12 03:48:14;;;;;;;584.63;360.02;;;;;;;;;;5030650;28;20436;-66
2023/08/12 03:50:45;;;;;;;579.57;354.60;;;;;;;;;;5028618;28;20535;-66
2023/08/12 03:53:12;;;;;;;571.60;346.27;;;;;;;;;;5026166;28;20473;-68
2023/08/12 03:55:42;;;;;;;567.90;348.48;;;;;;;;;;5027313;28;20522;-68
2023/08/12 03:58:10;;;;;;;571.03;357.55;;;;;;;;;;5024980;28;20557;-66
2023/08/12 04:00:40;;;;;;;565.22;349.08;;;;;;;;;;5028808;28;21144;-66
2023/08/12 04:03:08;;;;;;;566.58;350.40;;;;;;;;;;5029203;28;20447;-66
2023/08/12 04:05:35;;;;;;;566.17;347.27;;;;;;;;;;5026675;28;20446;-66
2023/08/12 04:08:02;;;;;;;570.88;360.95;;;;;;;;;;5026545;28;20421;-66
2023/08/12 04:10:30;;;;;;;584.03;381.03;;;;;;;;;;5026544;28;20499;-65
2023/08/12 04:12:57;;;;;;;584.63;386.15;;;;;;;;;;5027485;28;20808;-66
2023/08/12 04:15:25;;;;;;;578.92;378.63;;;;;;;;;;5026300;28;20461;-66
2023/08/12 04:17:52;;;;;;;581.83;371.13;;;;;;;;;;5028533;28;20519;-66
2023/08/12 04:20:20;;;;;;;591.35;389.42;;;;;;;;;;5024290;28;20516;-67
2023/08/12 04:22:47;;;;;;;585.87;371.70;;;;;;;;;;5025187;28;20580;-66
2023/08/12 04:25:16;;;;;;;596.70;393.23;;;;;;;;;;5024173;28;20433;-67
2023/08/12 04:27:43;;;;;;;588.25;378.00;;;;;;;;;;5030313;28;20464;-66
2023/08/12 04:30:13;;;;;;;587.47;380.73;;;;;;;;;;5031097;28;20528;-66
2023/08/12 04:32:41;;;;;;;582.30;373.38;;;;;;;;;;5027947;28;20515;-67
2023/08/12 04:35:08;;;;;;;589.70;387.42;;;;;;;;;;5025613;28;20427;-67
2023/08/12 04:37:36;;;;;;;587.15;380.75;;;;;;;;;;5022340;28;20432;-67
2023/08/12 04:40:04;;;;;;;587.58;375.50;;;;;;;;;;5027161;28;20492;-67
2023/08/12 04:42:31;;;;;;;576.38;357.52;;;;;;;;;;5023396;28;20457;-67
2023/08/12 04:44:59;;;;;;;581.67;368.08;;;;;;;;;;5029867;28;20508;-68
2023/08/12 04:47:26;;;;;;;582.15;361.92;;;;;;;;;;5025839;28;22193;-67
2023/08/12 04:49:56;;;;;;;570.95;344.13;;;;;;;;;;5028048;28;20434;-68
2023/08/12 04:52:23;;;;;;;587.72;381.17;;;;;;;;;;5025459;28;20563;-67
2023/08/12 04:54:53;;;;;;;585.37;382.73;;;;;;;;;;5027305;28;20574;-67
2023/08/12 04:57:20;;;;;;;576.27;371.30;;;;;;;;;;5030375;28;20516;-67
2023/08/12 04:59:47;;;;;;;575.88;371.65;;;;;;;;;;5025657;28;20528;-67
2023/08/12 05:02:14;;;;;;;577.22;370.27;;;;;;;;;;5026999;28;20434;-68
2023/08/12 05:04:42;;;;;;;583.93;379.17;;;;;;;;;;5024667;28;20451;-68
2023/08/12 05:07:09;;;;;;;589.83;386.92;;;;;;;;;;5028648;28;20508;-67
2023/08/12 05:09:36;;;;;;;588.50;385.83;;;;;;;;;;5024292;28;20514;-68
2023/08/12 05:12:06;;;;;;;590.25;390.67;;;;;;;;;;5028004;28;20461;-68
2023/08/12 05:14:33;;;;;;;581.10;372.93;;;;;;;;;;5026577;28;21132;-67
2023/08/12 05:17:00;;;;;;;582.83;381.00;;;;;;;;;;5030456;28;21092;-67
2023/08/12 05:19:28;;;;;;;583.45;384.90;;;;;;;;;;5026937;28;20433;-67
2023/08/12 05:21:55;;;;;;;588.45;392.33;;;;;;;;;;5026358;28;20510;-67
2023/08/12 05:24:22;;;;;;;590.53;387.30;;;;;;;;;;5026522;28;20842;-67
2023/08/12 05:26:49;;;;;;;593.58;382.75;;;;;;;;;;5026608;28;20461;-67
2023/08/12 05:29:16;;;;;;;604.83;403.00;;;;;;;;;;5026817;28;22186;-67
2023/08/12 05:31:44;;;;;;;602.07;403.83;;;;;;;;;;5031315;28;20524;-67
2023/08/12 05:34:11;;;;;;;602.15;397.90;;;;;;;;;;5031098;28;20428;-67
2023/08/12 05:36:38;;;;;;;583.47;367.90;;;;;;;;;;5031881;28;20459;-67
2023/08/12 05:39:06;;;;;;;583.38;370.60;;;;;;;;;;5027434;28;20599;-67
2023/08/12 05:41:33;;;;;;;579.78;366.83;;;;;;;;;;5030329;28;20445;-67
2023/08/12 05:44:01;;;;;;;585.45;368.77;;;;;;;;;;5030526;28;20528;-67
2023/08/12 05:46:28;;;;;;;584.58;368.75;;;;;;;;;;5030041;28;20426;-67
2023/08/12 05:48:55;;;;;;;579.22;360.88;;;;;;;;;;5030701;28;20604;-67
2023/08/12 05:51:25;;;;;;;576.15;363.42;;;;;;;;;;5029317;28;20433;-67
2023/08/12 05:53:56;;;;;;;553.77;350.53;;;;;;;;;;5024704;28;22779;-67
2023/08/12 05:56:26;;;;;;;585.72;395.10;;;;;;;;;;5032715;28;20783;-67
2023/08/12 05:58:53;;;;;;;692.10;516.10;;;;;;;;;;5020779;28;20565;-68
2023/08/12 06:01:20;;;;;;;778.63;612.45;;;;;;;;;;5027442;28;20515;-68
2023/08/12 06:03:48;;;;;;;863.30;684.03;;;;;;;;;;5029619;28;20483;-68
2023/08/12 06:06:17;;;;;;;911.55;727.67;;;;;;;;;;5028464;28;20429;-68
2023/08/12 06:08:44;;;;;;;938.78;757.80;;;;;;;;;;5029975;28;20951;-68
2023/08/12 06:11:12;;;;;;;969.03;800.10;;;;;;;;;;5030669;28;20559;-67
2023/08/12 06:13:39;;;;;;;979.50;821.72;;;;;;;;;;5032905;28;20530;-68
2023/08/12 06:16:08;;;;;;;992.97;850.60;;;;;;;;;;5029042;28;20445;-68
2023/08/12 06:18:36;;;;;;;988.43;851.33;;;;;;;;;;5027632;28;20426;-67
2023/08/12 06:21:03;;;;;;;998.13;867.42;;;;;;;;;;5029577;28;20457;-67
2023/08/12 06:23:30;;;;;;;1003.75;880.08;;;;;;;;;;5031809;28;20514;-67
2023/08/12 06:25:57;;;;;;;1008.50;893.33;;;;;;;;;;5029739;28;20461;-67
2023/08/12 06:28:24;;;;;;;1015.00;902.60;;;;;;;;;;5016438;28;20796;-67
2023/08/12 06:30:52;;;;;;;1033.00;919.80;;;;;;;;;;5026477;28;20441;-67
2023/08/12 06:33:19;;;;;;;1037.75;924.55;;;;;;;;;;5027283;28;20954;-67
2023/08/12 06:35:46;;;;;;;1046.25;932.83;;;;;;;;;;5026322;28;20475;-67
2023/08/12 06:38:17;;;;;;;1059.13;945.13;;;;;;;;;;5047161;28;20434;-67
2023/08/12 06:40:44;;;;;;;1057.90;944.25;;;;;;;;;;5027876;28;20508;-67
2023/08/12 06:43:14;;;;;;;1078.75;964.08;;;;;;;;;;5025746;28;20436;-67
2023/08/12 06:45:41;;;;;;;1105.68;988.17;;;;;;;;;;5027411;28;20430;-67
2023/08/12 06:48:08;;;;;;;1078.53;963.15;;;;;;;;;;5025209;28;20437;-67
2023/08/12 06:50:36;;;;;;;1081.22;965.78;;;;;;;;;;5027063;28;20531;-67
2023/08/12 06:53:03;;;;;;;1060.93;947.35;;;;;;;;;;5026906;28;20511;-67
2023/08/12 06:55:30;;;;;;;1074.00;959.75;;;;;;;;;;5028990;28;20439;-67
2023/08/12 06:57:57;;;;;;;1106.53;990.07;;;;;;;;;;5025850;28;20899;-67
2023/08/12 07:00:24;;;;;;;1149.75;999.90;;;;;;;;;;5027083;28;20442;-67
2023/08/12 07:02:51;;;;;;;1075.93;960.45;;;;;;;;;;5029219;28;20429;-67
2023/08/12 07:05:19;;;;;;;1064.68;950.15;;;;;;;;;;5029041;28;21107;-66
2023/08/12 07:07:46;;;;;;;1080.28;965.28;;;;;;;;;;5025510;28;20439;-66
2023/08/12 07:10:16;;;;;;;1039.47;926.58;;;;;;;;;;5022906;28;20441;-66
2023/08/12 07:12:43;;;;;;;1002.55;889.83;;;;;;;;;;5024673;28;20437;-66
2023/08/12 07:15:10;;;;;;;1005.70;894.20;;;;;;;;;;5023608;28;21111;-65
2023/08/12 07:17:38;;;;;;;1062.47;946.87;;;;;;;;;;5025116;28;20429;-66
2023/08/12 07:20:08;;;;;;;1041.50;927.53;;;;;;;;;;5025855;28;20437;-65
2023/08/12 07:22:36;;;;;;;1051.97;937.78;;;;;;;;;;5022823;28;20436;-66
2023/08/12 07:25:03;;;;;;;1081.30;965.38;;;;;;;;;;5024821;28;20549;-66
2023/08/12 07:27:33;;;;;;;1095.13;978.17;;;;;;;;;;5025243;28;20444;-66
2023/08/12 07:30:00;;;;;;;1133.78;999.90;;;;;;;;;;5023699;28;20443;-66
2023/08/12 07:32:27;;;;;;;1107.63;990.78;;;;;;;;;;5026583;28;20488;-66
2023/08/12 07:34:54;;;;;;;1095.03;979.00;;;;;;;;;;5024211;28;20440;-65
2023/08/12 07:37:22;;;;;;;1089.53;973.25;;;;;;;;;;5023492;28;20433;-66
2023/08/12 07:39:49;;;;;;;1088.73;972.33;;;;;;;;;;5027435;28;20504;-66
2023/08/12 07:42:16;;;;;;;1084.13;968.42;;;;;;;;;;5028745;28;20526;-65
2023/08/12 07:44:44;;;;;;;1062.63;947.53;;;;;;;;;;5023398;28;20458;-65
2023/08/12 07:47:11;;;;;;;1021.17;908.97;;;;;;;;;;5028281;28;20432;-65
2023/08/12 07:49:38;;;;;;;1011.95;900.63;;;;;;;;;;5024475;28;20550;-66
2023/08/12 07:52:09;;;;;;;987.95;866.60;;;;;;;;;;5025398;28;20513;-66
2023/08/12 07:54:37;;;;;;;996.67;869.37;;;;;;;;;;5023758;28;20459;-66
2023/08/12 07:57:04;;;;;;;1005.70;880.00;;;;;;;;;;5024989;28;20423;-66
2023/08/12 07:59:31;;;;;;;1004.38;879.60;;;;;;;;;;5022339;28;20468;-65
2023/08/12 08:01:59;;;;;;;1034.90;920.10;;;;;;;;;;5024187;28;20469;-65
2023/08/12 08:04:26;;;;;;;1008.15;885.60;;;;;;;;;;5025419;28;20452;-67
2023/08/12 08:06:53;;;;;;;999.07;873.97;;;;;;;;;;5026084;28;20453;-65
2023/08/12 08:09:23;;;;;;;997.43;872.43;;;;;;;;;;5025425;28;20524;-66
2023/08/12 08:11:53;;;;;;;986.93;851.50;;;;;;;;;;5022997;28;20945;-65
2023/08/12 08:14:23;;;;;;;999.10;873.28;;;;;;;;;;5027781;28;20441;-65
2023/08/12 08:16:50;;;;;;;1001.22;881.00;;;;;;;;;;5027886;28;20510;-65
2023/08/12 08:19:18;;;;;;;1021.75;908.50;;;;;;;;;;5021606;28;20475;-65
2023/08/12 08:21:46;;;;;;;1049.53;934.72;;;;;;;;;;5025396;28;20502;-65
2023/08/12 08:24:13;;;;;;;1044.97;930.47;;;;;;;;;;5024203;28;20482;-65
2023/08/12 08:26:40;;;;;;;1022.13;909.20;;;;;;;;;;5023059;28;20445;-65
2023/08/12 08:29:08;;;;;;;1057.50;942.22;;;;;;;;;;5024008;28;20434;-65
2023/08/12 08:31:36;;;;;;;1082.35;965.75;;;;;;;;;;5024099;28;20435;-65
2023/08/12 08:34:06;;;;;;;1082.38;965.92;;;;;;;;;;5026448;28;20429;-64
2023/08/12 08:36:33;;;;;;;1085.28;968.88;;;;;;;;;;5025418;28;20429;-65
2023/08/12 08:39:01;;;;;;;1077.55;962.15;;;;;;;;;;5037823;28;20485;-65
2023/08/12 08:41:29;;;;;;;1092.75;977.20;;;;;;;;;;5041847;28;20437;-66
2023/08/12 08:44:00;;;;;;;1090.87;975.27;;;;;;;;;;5022858;28;23099;-66
2023/08/12 08:46:28;;;;;;;1077.33;962.80;;;;;;;;;;5024751;28;20434;-66
2023/08/12 08:48:57;;;;;;;1053.38;940.53;;;;;;;;;;5026777;28;20436;-66
2023/08/12 08:51:28;;;;;;;1049.82;936.88;;;;;;;;;;5022810;28;20428;-67
2023/08/12 08:53:56;;;;;;;1030.43;918.37;;;;;;;;;;5026224;28;20441;-67
2023/08/12 08:56:29;;;;;;;1035.10;922.60;;;;;;;;;;5021166;28;20434;-66
2023/08/12 08:58:56;;;;;;;1043.40;930.67;;;;;;;;;;5025212;28;20433;-66
2023/08/12 09:01:24;;;;;;;1045.63;932.38;;;;;;;;;;5021208;28;20433;-66
2023/08/12 09:03:54;;;;;;;1041.43;928.17;;;;;;;;;;5026627;28;20591;-65
2023/08/12 09:06:22;;;;;;;1014.92;903.42;;;;;;;;;;5026835;28;20522;-66
2023/08/12 09:08:51;;;;;;;1028.30;915.73;;;;;;;;;;5029986;28;20439;-66
2023/08/12 09:11:19;;;;;;;1019.75;907.45;;;;;;;;;;5027038;28;21149;-67
2023/08/12 09:13:48;;;;;;;1048.40;934.42;;;;;;;;;;5027574;28;20643;-65
2023/08/12 09:16:15;;;;;;;1069.18;953.80;;;;;;;;;;5026930;28;20925;-65
2023/08/12 09:18:44;;;;;;;1078.80;962.90;;;;;;;;;;5027332;28;20432;-65
2023/08/12 09:21:11;;;;;;;1076.68;962.03;;;;;;;;;;5017306;28;20433;-65
2023/08/12 09:23:39;;;;;;;1076.65;962.58;;;;;;;;;;5027271;28;20506;-64
2023/08/12 09:26:17;;;;;;;1094.63;979.17;;;;;;;;;;5027966;28;20515;-65
2023/08/12 09:28:45;;;;;;;1075.10;961.20;;;;;;;;;;5026582;28;20446;-66
2023/08/12 09:31:22;;;;;;;1106.65;990.25;;;;;;;;;;5026231;28;20464;-65
2023/08/12 09:33:51;;;;;;;1120.65;999.90;;;;;;;;;;5026339;28;20444;-65
2023/08/12 09:36:18;;;;;;;1065.28;951.25;;;;;;;;;;5025655;28;20455;-66
2023/08/12 09:38:46;;;;;;;1074.10;959.20;;;;;;;;;;5031701;28;20429;-65
2023/08/12 09:41:13;;;;;;;1081.70;966.22;;;;;;;;;;5030523;28;20569;-65
2023/08/12 09:43:43;;;;;;;1092.55;976.80;;;;;;;;;;5030017;28;20526;-64
2023/08/12 09:46:14;;;;;;;1081.22;966.40;;;;;;;;;;5033876;28;20523;-65
2023/08/12 09:48:47;;;;;;;1064.88;950.58;;;;;;;;;;5031498;28;20464;-66
2023/08/12 09:51:14;;;;;;;1069.88;955.03;;;;;;;;;;5030653;28;20502;-65
2023/08/12 09:53:42;;;;;;;1060.13;946.00;;;;;;;;;;5028462;28;20520;-65
2023/08/12 09:56:11;;;;;;;1058.35;944.42;;;;;;;;;;5033116;28;20524;-66
2023/08/12 09:58:42;;;;;;;1040.97;927.67;;;;;;;;;;5026722;28;20471;-66
2023/08/12 10:01:11;;;;;;;1065.40;950.35;;;;;;;;;;5027891;28;20917;-65
2023/08/12 10:03:38;;;;;;;1042.70;929.73;;;;;;;;;;5029721;28;20435;-66
2023/08/12 10:06:06;;;;;;;1034.63;922.53;;;;;;;;;;5028808;28;20439;-65
2023/08/12 10:08:34;;;;;;;1017.75;905.65;;;;;;;;;;5029507;28;20440;-65
2023/08/12 10:11:02;;;;;;;981.20;858.53;;;;;;;;;;5030186;28;20442;-65
2023/08/12 10:13:42;;;;;;;969.63;839.88;;;;;;;;;;5030710;28;20468;-67
2023/08/12 10:16:10;;;;;;;988.70;854.42;;;;;;;;;;5029798;28;20443;-72
2023/08/12 10:18:39;;;;;;;970.75;813.55;;;;;;;;;;5032968;28;20959;-83
2023/08/12 10:21:09;;;;;;;929.78;752.83;;;;;;;;;;5040021;28;20811;-83
2023/08/12 10:23:36;;;;;;;936.35;763.25;;;;;;;;;;5040426;28;20603;-79
2023/08/12 10:26:05;;;;;;;918.70;743.38;;;;;;;;;;5038668;28;20896;-75
2023/08/12 10:28:36;;;;;;;845.00;652.80;;;;;;;;;;5035176;28;20464;-72
2023/08/12 10:31:05;;;;;;;816.65;622.47;;;;;;;;;;5030543;28;20526;-71
2023/08/12 10:33:39;;;;;;;798.88;610.55;;;;;;;;;;5028072;28;20455;-71
2023/08/12 10:36:07;;;;;;;772.58;591.45;;;;;;;;;;5028861;28;20432;-70
2023/08/12 10:38:34;;;;;;;753.95;578.38;;;;;;;;;;5031339;28;20425;-70
2023/08/12 10:41:17;;;;;;;732.72;565.42;;;;;;;;;;5029671;28;20759;-70
2023/08/12 10:43:54;;;;;;;724.70;565.17;;;;;;;;;;5031258;28;21131;-69
2023/08/12 10:46:24;;;;;;;713.80;555.70;;;;;;;;;;5027509;28;20760;-68
2023/08/12 10:49:04;;;;;;;697.95;548.95;;;;;;;;;;5027802;28;21133;-68
2023/08/12 10:51:47;;;;;;;690.22;545.47;;;;;;;;;;5032230;28;20440;-68
2023/08/12 10:54:15;;;;;;;697.28;558.55;;;;;;;;;;5028963;28;20437;-68
2023/08/12 10:57:02;;;;;;;691.88;548.42;;;;;;;;;;5033712;28;20931;-67
2023/08/12 10:59:48;;;;;;;705.05;576.25;;;;;;;;;;5029144;28;20439;-68
2023/08/12 11:02:20;;;;;;;685.42;537.95;;;;;;;;;;5028616;28;20443;-67
2023/08/12 11:04:55;;;;;;;699.42;569.45;;;;;;;;;;5029200;28;20426;-67
2023/08/12 11:07:34;;;;;;;673.08;530.05;;;;;;;;;;5031495;28;20429;-67
2023/08/12 11:10:13;;;;;;;664.83;519.78;;;;;;;;;;5029681;28;20440;-67
2023/08/12 11:12:56;;;;;;;661.58;517.60;;;;;;;;;;5026299;28;20422;-67
2023/08/12 11:15:32;;;;;;;671.33;536.17;;;;;;;;;;5035725;28;20524;-66
2023/08/12 11:18:03;;;;;;;675.35;537.08;;;;;;;;;;5034316;28;20429;-66
2023/08/12 11:20:37;;;;;;;694.40;559.13;;;;;;;;;;5042518;28;20449;-66
2023/08/12 11:23:05;;;;;;;690.92;555.25;;;;;;;;;;5031409;28;20863;-66
2023/08/12 11:25:33;;;;;;;663.85;512.10;;;;;;;;;;5031390;28;20839;-66
2023/08/12 11:28:00;;;;;;;663.22;516.40;;;;;;;;;;5031905;28;20461;-65
2023/08/12 11:30:31;;;;;;;658.15;504.42;;;;;;;;;;5021663;28;20439;-66
2023/08/12 11:32:59;;;;;;;646.58;485.33;;;;;;;;;;5025625;28;20457;-66
2023/08/12 11:35:27;;;;;;;675.47;524.30;;;;;;;;;;5023275;28;20440;-67
2023/08/12 11:37:57;;;;;;;651.97;484.98;;;;;;;;;;5027425;28;20441;-67
2023/08/12 11:40:25;;;;;;;626.93;450.73;;;;;;;;;;5028170;28;20429;-66
2023/08/12 11:42:53;;;;;;;660.97;516.72;;;;;;;;;;5021954;28;20448;-65
2023/08/12 11:45:24;;;;;;;662.78;518.78;;;;;;;;;;5027081;28;20433;-66
2023/08/12 11:47:55;;;;;;;668.25;526.63;;;;;;;;;;5023074;28;20444;-65
2023/08/12 11:50:27;;;;;;;668.10;528.90;;;;;;;;;;5024520;28;21682;-65
2023/08/12 11:52:56;;;;;;;683.97;537.40;;;;;;;;;;5022637;28;20440;-65
2023/08/12 11:55:23;;;;;;;738.05;594.85;;;;;;;;;;5024979;28;20905;-65
2023/08/12 11:57:51;;;;;;;765.10;621.40;;;;;;;;;;5023713;28;20431;-65
2023/08/12 12:00:19;;;;;;;783.00;632.85;;;;;;;;;;5031712;28;20456;-65
2023/08/12 12:02:48;;;;;;;789.50;637.40;;;;;;;;;;5037255;28;21052;-65
2023/08/12 12:05:16;;;;;;;814.70;660.10;;;;;;;;;;5036689;28;20445;-65
2023/08/12 12:07:43;;;;;;;824.25;661.13;;;;;;;;;;5032868;28;20433;-64
2023/08/12 12:10:15;;;;;;;846.30;686.80;;;;;;;;;;5039104;28;20512;-64
2023/08/12 12:12:44;;;;;;;851.10;689.10;;;;;;;;;;5029727;28;20424;-65
2023/08/12 12:15:14;;;;;;;854.88;689.40;;;;;;;;;;5033248;28;20435;-65
2023/08/12 12:17:42;;;;;;;855.97;689.25;;;;;;;;;;5036825;28;20429;-67
2023/08/12 12:20:10;;;;;;;880.50;708.58;;;;;;;;;;5031516;28;20438;-68
2023/08/12 12:22:43;;;;;;;889.15;718.35;;;;;;;;;;5034628;28;20805;-66
2023/08/12 12:25:20;;;;;;;903.35;738.80;;;;;;;;;;5037050;28;20561;-66
2023/08/12 12:27:47;;;;;;;903.43;740.67;;;;;;;;;;5038420;28;20559;-67
2023/08/12 12:30:19;;;;;;;929.08;772.95;;;;;;;;;;5041977;28;20474;-67
2023/08/12 12:32:47;;;;;;;957.53;807.08;;;;;;;;;;5040196;28;20437;-64
2023/08/12 12:35:16;;;;;;;977.90;842.63;;;;;;;;;;5042386;28;20433;-64
2023/08/12 12:37:44;;;;;;;970.40;834.50;;;;;;;;;;5032259;28;20516;-65
2023/08/12 12:40:11;;;;;;;970.83;839.47;;;;;;;;;;5030970;28;20428;-64
2023/08/12 12:42:41;;;;;;;961.38;831.78;;;;;;;;;;5030939;28;20433;-65
2023/08/12 12:45:09;;;;;;;975.90;844.07;;;;;;;;;;5041828;28;21278;-65
2023/08/12 12:47:37;;;;;;;981.83;855.47;;;;;;;;;;5037516;28;20460;-65
2023/08/12 12:50:05;;;;;;;988.27;864.73;;;;;;;;;;5037362;28;20524;-64
2023/08/12 12:52:32;;;;;;;988.67;870.67;;;;;;;;;;5043031;28;20428;-65
2023/08/12 12:55:00;;;;;;;994.63;878.22;;;;;;;;;;5035668;28;21413;-65
2023/08/12 12:57:27;;;;;;;975.70;854.75;;;;;;;;;;5039394;28;23115;-65
2023/08/12 12:59:55;;;;;;;975.72;854.50;;;;;;;;;;5042536;28;20504;-65
2023/08/12 13:02:22;;;;;;;974.13;850.65;;;;;;;;;;5030137;28;20515;-65
2023/08/12 13:04:49;;;;;;;992.07;860.00;;;;;;;;;;5034387;28;20433;-66
2023/08/12 13:07:17;;;;;;;992.95;867.22;;;;;;;;;;5036047;28;20837;-65
2023/08/12 13:09:44;;;;;;;1004.05;882.80;;;;;;;;;;5032674;28;20429;-66
2023/08/12 13:12:11;;;;;;;994.97;875.25;;;;;;;;;;5037953;28;20436;-66
2023/08/12 13:14:39;;;;;;;994.33;866.88;;;;;;;;;;5037108;28;20440;-64
2023/08/12 13:17:07;;;;;;;1018.95;903.50;;;;;;;;;;5034592;28;20457;-65
2023/08/12 13:19:34;;;;;;;1009.58;885.72;;;;;;;;;;5039126;28;20526;-65
2023/08/12 13:22:02;;;;;;;1019.25;900.25;;;;;;;;;;5040161;28;20433;-66
2023/08/12 13:24:30;;;;;;;984.92;857.88;;;;;;;;;;5044038;28;21036;-66
2023/08/12 13:26:57;;;;;;;983.92;859.65;;;;;;;;;;5038890;28;20439;-65
2023/08/12 13:29:26;;;;;;;1002.20;887.13;;;;;;;;;;5039323;28;20793;-66
2023/08/12 13:31:53;;;;;;;1011.00;895.55;;;;;;;;;;5035000;28;20915;-67
2023/08/12 13:34:20;;;;;;;998.95;875.80;;;;;;;;;;5031743;28;20482;-65
2023/08/12 13:36:51;;;;;;;996.85;868.60;;;;;;;;;;5036585;28;20928;-65
2023/08/12 13:39:18;;;;;;;1007.97;883.70;;;;;;;;;;5041509;28;20437;-65
2023/08/12 13:41:48;;;;;;;1001.67;871.90;;;;;;;;;;5035828;28;20491;-66
2023/08/12 13:44:15;;;;;;;994.30;862.20;;;;;;;;;;5034920;28;21264;-65
2023/08/12 13:46:42;;;;;;;996.03;864.47;;;;;;;;;;5039574;28;20500;-66
2023/08/12 13:49:11;;;;;;;1003.55;876.60;;;;;;;;;;5040571;28;20470;-65
2023/08/12 13:51:40;;;;;;;992.58;870.15;;;;;;;;;;5040050;28;20923;-65
2023/08/12 13:54:07;;;;;;;983.20;857.58;;;;;;;;;;5044081;28;20485;-66
2023/08/12 13:56:35;;;;;;;972.60;842.42;;;;;;;;;;5043159;28;20425;-65